createdAt,value
2023-02-06T00:00:46.718Z,42.79
2023-02-06T00:03:13.111Z,42.74
2023-02-06T00:05:39.652Z,43.00
2023-02-06T00:08:07.128Z,42.81
2023-02-06T00:10:33.649Z,42.87
2023-02-06T00:12:59.996Z,42.82
2023-02-06T00:15:26.351Z,42.81
2023-02-06T00:17:52.745Z,42.79
2023-02-06T00:20:19.100Z,42.85
2023-02-06T00:22:45.432Z,42.94
2023-02-06T00:25:11.832Z,42.83
2023-02-06T00:27:38.167Z,42.88
2023-02-06T00:30:04.675Z,42.96
2023-02-06T00:32:31.064Z,42.91
2023-02-06T00:34:57.491Z,42.85
2023-02-06T00:37:23.853Z,42.81
2023-02-06T00:39:50.204Z,42.86
2023-02-06T00:42:16.589Z,42.94
2023-02-06T00:44:44.364Z,42.99
2023-02-06T00:47:10.694Z,43.07
2023-02-06T00:49:37.019Z,42.98
2023-02-06T00:52:03.360Z,42.90
2023-02-06T00:54:29.682Z,43.01
2023-02-06T00:56:56.455Z,42.88
2023-02-06T00:59:22.784Z,42.97
2023-02-06T01:01:49.212Z,42.93
2023-02-06T01:04:15.584Z,42.89
2023-02-06T01:06:41.926Z,42.92
2023-02-06T01:09:08.260Z,42.85
2023-02-06T01:11:34.902Z,42.96
2023-02-06T01:14:01.303Z,42.88
2023-02-06T01:16:27.703Z,42.93
2023-02-06T01:18:54.100Z,42.77
2023-02-06T01:21:21.446Z,42.77
2023-02-06T01:23:48.185Z,42.83
2023-02-06T01:26:14.881Z,42.90
2023-02-06T01:28:42.266Z,42.81
2023-02-06T01:31:11.913Z,42.94
2023-02-06T01:33:38.528Z,42.93
2023-02-06T01:36:04.881Z,42.95
2023-02-06T01:38:31.230Z,42.65
2023-02-06T01:40:58.524Z,42.97
2023-02-06T01:43:25.544Z,42.85
2023-02-06T01:45:52.956Z,43.01
2023-02-06T01:48:20.670Z,43.27
2023-02-06T01:50:48.176Z,43.13
2023-02-06T01:53:14.759Z,43.19
2023-02-06T01:55:41.088Z,43.04
2023-02-06T01:58:07.648Z,43.16
2023-02-06T02:00:34.575Z,43.12
2023-02-06T02:03:00.924Z,43.08
2023-02-06T02:05:27.257Z,43.06
2023-02-06T02:08:01.052Z,43.09
2023-02-06T02:10:28.525Z,42.99
2023-02-06T02:12:54.881Z,42.96
2023-02-06T02:15:21.928Z,42.98
2023-02-06T02:17:55.032Z,42.97
2023-02-06T02:20:27.352Z,43.27
2023-02-06T02:23:06.024Z,43.25
2023-02-06T02:25:52.055Z,43.24
2023-02-06T02:28:26.970Z,43.04
2023-02-06T02:31:07.831Z,43.14
2023-02-06T02:33:42.714Z,43.09
2023-02-06T02:36:29.587Z,43.28
2023-02-06T02:39:17.369Z,43.24
2023-02-06T02:41:55.623Z,43.23
2023-02-06T02:44:34.087Z,43.19
2023-02-06T02:47:00.915Z,43.18
2023-02-06T03:09:26.152Z,43.16
2023-02-06T03:11:55.779Z,43.22
2023-02-06T03:14:29.202Z,43.14
2023-02-06T03:16:57.692Z,42.98
2023-02-06T03:19:29.903Z,43.04
2023-02-06T03:21:56.239Z,43.03
2023-02-06T03:24:26.446Z,43.01
2023-02-06T03:26:54.240Z,43.00
2023-02-06T03:29:20.559Z,43.29
2023-02-06T03:31:56.833Z,42.98
2023-02-06T03:34:25.064Z,43.17
2023-02-06T03:36:51.694Z,43.26
2023-02-06T03:39:18.045Z,43.23
2023-02-06T03:41:44.393Z,43.11
2023-02-06T03:44:10.793Z,43.12
2023-02-06T03:46:37.195Z,43.16
2023-02-06T03:49:04.410Z,43.10
2023-02-06T03:51:35.151Z,43.34
2023-02-06T03:54:02.296Z,43.18
2023-02-06T03:56:33.051Z,43.30
2023-02-06T03:58:59.371Z,43.29
2023-02-06T04:01:25.754Z,43.17
2023-02-06T04:03:52.099Z,43.23
2023-02-06T04:06:18.440Z,43.05
2023-02-06T04:08:44.769Z,43.19
2023-02-06T04:11:11.097Z,43.16
2023-02-06T04:13:37.449Z,43.15
2023-02-06T04:16:03.770Z,43.06
2023-02-06T04:18:30.103Z,43.15
2023-02-06T04:20:56.431Z,43.12
2023-02-06T04:23:22.766Z,43.08
2023-02-06T04:25:49.093Z,43.20
2023-02-06T04:28:15.549Z,43.31
2023-02-06T04:30:42.083Z,43.49
2023-02-06T04:33:08.518Z,43.28
2023-02-06T04:35:35.306Z,43.29
2023-02-06T04:38:01.839Z,43.26
2023-02-06T04:40:28.176Z,43.34
2023-02-06T04:42:54.547Z,43.33
2023-02-06T04:45:20.863Z,43.29
2023-02-06T04:47:50.197Z,43.31
2023-02-06T04:50:16.978Z,43.33
2023-02-06T04:52:43.329Z,43.42
2023-02-06T04:55:09.679Z,43.31
2023-02-06T04:57:36.018Z,43.13
2023-02-06T05:00:02.329Z,43.20
2023-02-06T05:02:28.731Z,43.31
2023-02-06T05:04:55.078Z,43.08
2023-02-06T05:07:21.484Z,43.12
2023-02-06T05:09:47.804Z,43.15
2023-02-06T05:12:14.403Z,43.27
2023-02-06T05:14:40.790Z,43.25
2023-02-06T05:17:07.122Z,43.23
2023-02-06T05:19:33.444Z,43.30
2023-02-06T05:21:59.778Z,43.08
2023-02-06T05:24:26.128Z,43.29
2023-02-06T05:26:52.456Z,43.31
2023-02-06T05:29:18.779Z,43.23
2023-02-06T05:31:45.146Z,43.30
2023-02-06T05:34:11.485Z,43.31
2023-02-06T05:36:37.822Z,43.16
2023-02-06T05:39:04.695Z,43.33
2023-02-06T05:41:31.051Z,43.52
2023-02-06T05:43:57.385Z,43.29
2023-02-06T05:46:23.731Z,43.37
2023-02-06T05:48:50.067Z,43.24
2023-02-06T05:51:16.872Z,43.17
2023-02-06T05:53:43.205Z,43.22
2023-02-06T05:56:09.568Z,43.15
2023-02-06T05:58:35.905Z,43.06
2023-02-06T06:01:02.251Z,43.25
2023-02-06T06:03:28.593Z,43.31
2023-02-06T06:05:55.017Z,43.78
2023-02-06T06:08:21.366Z,43.92
2023-02-06T06:10:49.536Z,44.15
2023-02-06T06:13:15.861Z,43.74
2023-02-06T06:15:43.203Z,43.72
2023-02-06T06:18:09.552Z,44.00
2023-02-06T06:20:35.871Z,44.07
2023-02-06T06:23:02.197Z,44.01
2023-02-06T06:25:28.554Z,43.96
2023-02-06T06:27:54.933Z,44.19
2023-02-06T06:30:21.319Z,44.62
2023-02-06T06:32:47.647Z,44.38
2023-02-06T06:35:14.016Z,44.48
2023-02-06T06:37:40.349Z,44.71
2023-02-06T06:40:06.803Z,44.63
2023-02-06T06:42:33.196Z,44.68
2023-02-06T06:44:59.562Z,44.72
2023-02-06T06:47:25.909Z,44.64
2023-02-06T06:49:52.250Z,45.66
2023-02-06T06:52:25.016Z,47.49
2023-02-06T06:54:52.657Z,50.74
2023-02-06T06:57:19.253Z,50.20
2023-02-06T06:59:45.577Z,50.00
2023-02-06T07:02:11.924Z,49.58
2023-02-06T07:04:38.294Z,48.68
2023-02-06T07:07:04.672Z,47.96
2023-02-06T07:09:31.026Z,47.67
2023-02-06T07:11:57.359Z,47.04
2023-02-06T07:14:23.679Z,45.85
2023-02-06T07:16:49.989Z,45.08
2023-02-06T07:19:16.310Z,44.47
2023-02-06T07:21:42.658Z,43.67
2023-02-06T07:24:09.012Z,43.07
2023-02-06T07:26:42.274Z,42.17
2023-02-06T07:29:08.677Z,42.67
2023-02-06T07:31:35.021Z,41.22
2023-02-06T07:34:02.281Z,40.50
2023-02-06T07:36:28.684Z,40.01
2023-02-06T07:38:55.053Z,39.90
2023-02-06T07:41:21.386Z,39.53
2023-02-06T07:43:48.057Z,39.63
2023-02-06T07:46:14.398Z,40.11
2023-02-06T07:48:40.901Z,40.38
2023-02-06T07:51:07.440Z,41.03
2023-02-06T07:53:34.036Z,41.44
2023-02-06T07:56:00.367Z,41.25
2023-02-06T07:58:26.740Z,41.65
2023-02-06T08:00:54.666Z,41.47
2023-02-06T08:03:21.089Z,41.75
2023-02-06T08:05:47.409Z,41.46
2023-02-06T08:08:13.736Z,41.48
2023-02-06T08:10:40.062Z,41.84
2023-02-06T08:13:06.385Z,41.92
2023-02-06T08:15:32.705Z,41.81
2023-02-06T08:17:59.036Z,41.73
2023-02-06T08:20:25.459Z,42.15
2023-02-06T08:22:51.804Z,42.32
2023-02-06T08:25:18.131Z,42.14
2023-02-06T08:27:44.497Z,42.27
2023-02-06T08:30:11.105Z,41.18
2023-02-06T08:32:37.418Z,41.15
2023-02-06T08:35:03.746Z,41.31
2023-02-06T08:37:31.021Z,41.21
2023-02-06T08:39:57.361Z,41.26
2023-02-06T08:42:23.682Z,41.50
2023-02-06T08:44:50.153Z,41.87
2023-02-06T08:47:16.477Z,41.84
2023-02-06T08:49:42.822Z,42.01
2023-02-06T08:52:09.159Z,40.83
2023-02-06T08:54:37.740Z,40.20
2023-02-06T08:57:06.553Z,40.40
2023-02-06T08:59:33.816Z,40.81
2023-02-06T09:02:00.145Z,41.01
2023-02-06T09:04:28.704Z,40.57
2023-02-06T09:06:55.025Z,41.21
2023-02-06T09:09:21.354Z,41.64
2023-02-06T09:11:47.811Z,41.50
2023-02-06T09:14:15.187Z,41.71
2023-02-06T09:16:41.826Z,41.55
2023-02-06T09:19:08.372Z,41.79
2023-02-06T09:21:34.841Z,41.39
2023-02-06T09:24:02.337Z,41.76
2023-02-06T09:26:33.195Z,42.35
2023-02-06T09:29:00.144Z,41.85
2023-02-06T09:31:26.962Z,41.49
2023-02-06T09:33:53.307Z,41.45
2023-02-06T09:36:20.005Z,41.57
2023-02-06T09:38:46.928Z,41.75
2023-02-06T09:41:33.458Z,41.48
2023-02-06T09:44:18.498Z,41.10
2023-02-06T09:46:58.513Z,41.06
2023-02-06T09:49:29.809Z,42.09
2023-02-06T09:51:59.310Z,41.97
2023-02-06T09:54:29.480Z,41.73
2023-02-06T09:57:05.299Z,41.68
2023-02-06T09:59:39.487Z,41.32
2023-02-06T10:02:29.607Z,42.05
2023-02-06T10:05:01.982Z,41.96
2023-02-06T10:07:35.688Z,41.52
2023-02-06T10:10:04.075Z,41.78
2023-02-06T10:12:38.915Z,42.02
2023-02-06T10:15:25.459Z,42.15
2023-02-06T10:17:56.765Z,41.47
2023-02-06T10:20:32.865Z,41.66
2023-02-06T10:23:03.352Z,41.67
2023-02-06T10:25:37.019Z,41.83
2023-02-06T10:28:10.273Z,41.58
2023-02-06T10:30:45.940Z,41.68
2023-02-06T10:33:25.393Z,41.90
2023-02-06T10:36:18.185Z,42.12
2023-02-06T10:38:51.191Z,41.94
2023-02-06T10:41:24.088Z,41.99
2023-02-06T10:44:01.227Z,42.30
2023-02-06T10:46:34.520Z,42.02
2023-02-06T10:49:02.449Z,42.16
2023-02-06T10:51:32.965Z,42.27
2023-02-06T10:54:03.285Z,42.38
2023-02-06T10:56:30.604Z,42.24
2023-02-06T10:59:00.859Z,42.28
2023-02-06T11:01:27.720Z,42.23
2023-02-06T11:04:03.544Z,42.49
2023-02-06T11:06:29.980Z,42.45
2023-02-06T11:08:56.322Z,42.34
2023-02-06T11:11:26.571Z,42.80
2023-02-06T11:14:05.092Z,42.48
2023-02-06T11:16:31.495Z,42.47
2023-02-06T11:18:59.321Z,42.62
2023-02-06T11:21:40.853Z,42.49
2023-02-06T11:24:14.221Z,42.25
2023-02-06T11:26:41.036Z,42.23
2023-02-06T11:29:17.708Z,42.35
2023-02-06T11:31:50.237Z,42.42
2023-02-06T11:34:19.627Z,42.35
2023-02-06T11:36:45.949Z,42.58
2023-02-06T11:39:31.011Z,43.04
2023-02-06T11:41:58.134Z,42.84
2023-02-06T11:44:25.181Z,41.95
2023-02-06T11:46:51.532Z,42.66
2023-02-06T11:49:25.259Z,42.81
2023-02-06T11:51:51.785Z,42.61
2023-02-06T11:54:22.367Z,42.29
2023-02-06T11:56:58.636Z,42.48
2023-02-06T11:59:26.998Z,42.56
2023-02-06T12:01:53.359Z,41.53
2023-02-06T12:04:34.121Z,40.88
2023-02-06T12:07:02.614Z,40.11
2023-02-06T12:09:28.980Z,39.95
2023-02-06T12:12:13.133Z,40.09
2023-02-06T12:14:44.623Z,40.47
2023-02-06T12:17:20.977Z,40.50
2023-02-06T12:19:48.766Z,40.72
2023-02-06T12:22:22.210Z,40.48
2023-02-06T12:24:54.871Z,40.84
2023-02-06T12:27:29.678Z,40.83
2023-02-06T12:29:55.926Z,40.93
2023-02-06T12:32:24.199Z,41.19
2023-02-06T12:34:54.419Z,41.27
2023-02-06T12:37:39.692Z,41.30
2023-02-06T12:40:18.191Z,41.30
2023-02-06T12:42:47.899Z,41.52
2023-02-06T12:45:25.105Z,41.57
2023-02-06T12:47:54.168Z,41.85
2023-02-06T12:50:24.832Z,41.98
2023-02-06T12:53:06.365Z,41.95
2023-02-06T12:55:37.560Z,42.08
2023-02-06T12:58:04.684Z,41.86
2023-02-06T13:00:45.644Z,42.02
2023-02-06T13:03:18.115Z,42.02
2023-02-06T13:05:46.842Z,41.86
2023-02-06T13:08:20.661Z,41.85
2023-02-06T13:10:48.163Z,41.94
2023-02-06T13:13:34.671Z,41.78
2023-02-06T13:16:01.047Z,41.88
2023-02-06T13:18:34.584Z,41.89
2023-02-06T13:21:20.834Z,41.87
2023-02-06T13:24:02.480Z,42.16
2023-02-06T13:26:43.830Z,42.22
2023-02-06T13:29:21.593Z,42.19
2023-02-06T13:31:48.174Z,42.34
2023-02-06T13:34:15.840Z,42.26
2023-02-06T13:36:42.169Z,42.29
2023-02-06T13:39:21.266Z,42.21
2023-02-06T13:41:47.606Z,42.35
2023-02-06T13:44:18.976Z,42.23
2023-02-06T13:46:52.849Z,42.42
2023-02-06T13:49:36.594Z,42.19
2023-02-06T13:52:08.999Z,42.37
2023-02-06T13:54:55.647Z,42.65
2023-02-06T13:57:23.518Z,42.73
2023-02-06T14:00:08.881Z,42.79
2023-02-06T14:02:40.097Z,43.09
2023-02-06T14:05:09.432Z,43.53
2023-02-06T14:07:41.836Z,44.25
2023-02-06T14:10:13.463Z,44.06
2023-02-06T14:12:55.852Z,44.47
2023-02-06T14:15:41.066Z,44.49
2023-02-06T14:18:15.312Z,44.56
2023-02-06T14:20:47.815Z,44.22
2023-02-06T14:23:25.456Z,44.43
2023-02-06T14:25:55.555Z,44.29
2023-02-06T14:28:24.685Z,44.16
2023-02-06T14:30:55.673Z,43.50
2023-02-06T14:33:40.965Z,43.66
2023-02-06T14:36:07.238Z,43.49
2023-02-06T14:38:52.108Z,43.46
2023-02-06T14:41:18.438Z,43.05
2023-02-06T14:43:44.846Z,43.08
2023-02-06T14:46:14.929Z,43.52
2023-02-06T14:48:44.330Z,43.27
2023-02-06T14:51:29.574Z,43.33
2023-02-06T14:53:56.964Z,43.18
2023-02-06T14:56:27.657Z,43.41
2023-02-06T14:58:54.052Z,43.51
2023-02-06T15:01:24.214Z,43.42
2023-02-06T15:03:52.440Z,44.02
2023-02-06T15:06:32.544Z,43.84
2023-02-06T15:08:58.897Z,44.28
2023-02-06T15:11:25.992Z,43.76
2023-02-06T15:13:53.342Z,43.50
2023-02-06T15:16:19.765Z,43.26
2023-02-06T15:18:46.153Z,43.25
2023-02-06T15:21:13.491Z,43.19
2023-02-06T15:23:54.047Z,43.69
2023-02-06T15:26:23.246Z,43.65
2023-02-06T15:28:54.504Z,43.39
2023-02-06T15:31:20.963Z,43.30
2023-02-06T15:33:48.400Z,43.33
2023-02-06T15:36:20.121Z,43.20
2023-02-06T15:38:46.488Z,43.61
2023-02-06T15:41:12.813Z,43.63
2023-02-06T15:43:39.134Z,43.31
2023-02-06T15:46:05.620Z,43.50
2023-02-06T15:48:36.107Z,43.95
2023-02-06T15:51:02.360Z,43.98
2023-02-06T15:53:35.918Z,43.89
2023-02-06T15:56:02.303Z,44.11
2023-02-06T15:58:28.657Z,44.17
2023-02-06T16:00:55.648Z,43.82
2023-02-06T16:03:22.937Z,44.13
2023-02-06T16:05:49.256Z,44.26
2023-02-06T16:08:26.333Z,44.32
2023-02-06T16:10:57.182Z,44.08
2023-02-06T16:13:25.049Z,43.72
2023-02-06T16:16:07.154Z,43.67
2023-02-06T16:18:34.458Z,43.91
2023-02-06T16:21:11.661Z,44.06
2023-02-06T16:23:45.097Z,44.00
2023-02-06T16:26:21.609Z,44.25
2023-02-06T16:28:51.040Z,43.91
2023-02-06T16:31:17.552Z,43.78
2023-02-06T16:33:44.692Z,43.73
2023-02-06T16:36:14.510Z,44.24
2023-02-06T16:38:43.150Z,43.90
2023-02-06T16:41:26.750Z,43.90
2023-02-06T16:43:53.677Z,44.20
2023-02-06T16:46:20.069Z,44.12
2023-02-06T16:48:46.388Z,43.95
2023-02-06T16:51:16.249Z,44.03
2023-02-06T16:53:42.610Z,44.10
2023-02-06T16:56:12.770Z,44.18
2023-02-06T16:58:39.144Z,44.14
2023-02-06T17:01:08.407Z,44.05
2023-02-06T17:03:34.790Z,44.13
2023-02-06T17:06:01.149Z,43.81
2023-02-06T17:08:27.501Z,43.85
2023-02-06T17:10:53.831Z,44.07
2023-02-06T17:13:21.051Z,44.30
2023-02-06T17:15:47.741Z,44.09
2023-02-06T17:18:14.601Z,43.93
2023-02-06T17:20:41.877Z,43.84
2023-02-06T17:23:10.495Z,43.92
2023-02-06T17:25:37.885Z,43.94
2023-02-06T17:28:06.853Z,43.83
2023-02-06T17:30:33.497Z,43.84
2023-02-06T17:32:59.841Z,43.91
2023-02-06T17:35:26.175Z,43.91
2023-02-06T17:37:52.534Z,44.05
2023-02-06T17:40:22.925Z,44.13
2023-02-06T17:42:49.271Z,44.59
2023-02-06T17:45:15.764Z,44.75
2023-02-06T17:47:42.126Z,45.23
2023-02-06T17:50:08.943Z,45.18
2023-02-06T17:52:35.431Z,45.00
2023-02-06T17:55:01.772Z,45.49
2023-02-06T17:57:29.789Z,45.45
2023-02-06T17:59:56.113Z,45.18
2023-02-06T18:02:22.487Z,45.27
2023-02-06T18:04:52.869Z,45.67
2023-02-06T18:07:19.238Z,41.05
2023-02-06T18:09:47.008Z,39.45
2023-02-06T18:12:13.605Z,41.26
2023-02-06T18:14:40.479Z,42.41
2023-02-06T18:17:07.066Z,42.55
2023-02-06T18:19:41.309Z,43.00
2023-02-06T18:22:11.476Z,43.64
2023-02-06T18:24:37.813Z,43.96
2023-02-06T18:27:05.590Z,44.12
2023-02-06T18:29:43.641Z,44.38
2023-02-06T18:32:15.198Z,44.38
2023-02-06T18:34:41.585Z,44.47
2023-02-06T18:37:08.758Z,44.60
2023-02-06T18:39:35.121Z,36.76
2023-02-06T18:42:20.185Z,41.31
2023-02-06T18:44:46.561Z,40.63
2023-02-06T18:47:14.257Z,40.01
2023-02-06T18:49:40.576Z,42.28
2023-02-06T18:52:07.038Z,41.95
2023-02-06T18:54:33.655Z,42.15
2023-02-06T18:57:00.117Z,42.20
2023-02-06T18:59:26.453Z,43.32
2023-02-06T19:01:53.781Z,44.08
2023-02-06T19:04:20.620Z,44.62
2023-02-06T19:06:47.135Z,44.90
2023-02-06T19:09:13.454Z,44.78
2023-02-06T19:11:40.084Z,44.57
2023-02-06T19:14:06.934Z,44.91
2023-02-06T19:16:34.129Z,44.56
2023-02-06T19:19:01.501Z,44.50
2023-02-06T19:21:28.162Z,44.50
2023-02-06T19:23:57.876Z,44.77
2023-02-06T19:26:24.274Z,44.86
2023-02-06T19:28:50.614Z,44.74
2023-02-06T19:31:23.661Z,44.87
2023-02-06T19:33:50.745Z,45.83
2023-02-06T19:36:17.159Z,45.79
2023-02-06T19:38:43.493Z,46.01
2023-02-06T19:41:11.298Z,47.15
2023-02-06T19:43:37.644Z,46.38
2023-02-06T19:46:07.643Z,46.17
2023-02-06T19:48:34.034Z,46.32
2023-02-06T19:51:06.932Z,46.09
2023-02-06T19:53:34.217Z,45.99
2023-02-06T19:56:03.548Z,46.30
2023-02-06T19:58:31.425Z,45.83
2023-02-06T20:00:58.136Z,45.91
2023-02-06T20:03:24.544Z,45.95
2023-02-06T20:05:50.889Z,45.64
2023-02-06T20:08:17.245Z,45.41
2023-02-06T20:10:43.613Z,45.43
2023-02-06T20:13:10.055Z,45.24
2023-02-06T20:15:39.184Z,45.50
2023-02-06T20:18:05.542Z,45.32
2023-02-06T20:20:35.159Z,45.01
2023-02-06T20:23:01.655Z,44.99
2023-02-06T20:25:27.985Z,45.08
2023-02-06T20:27:54.384Z,45.34
2023-02-06T20:30:22.020Z,45.36
2023-02-06T20:32:48.376Z,45.33
2023-02-06T20:35:14.706Z,45.14
2023-02-06T20:37:41.035Z,45.46
2023-02-06T20:40:07.445Z,45.10
2023-02-06T20:42:34.619Z,45.36
2023-02-06T20:45:00.951Z,45.11
2023-02-06T20:47:27.373Z,45.10
2023-02-06T20:49:53.702Z,45.12
2023-02-06T20:52:20.141Z,45.31
2023-02-06T20:54:46.497Z,45.32
2023-02-06T20:57:12.838Z,45.38
2023-02-06T20:59:39.204Z,45.25
2023-02-06T21:02:05.731Z,45.26
2023-02-06T21:04:32.906Z,45.38
2023-02-06T21:06:59.285Z,45.22
2023-02-06T21:09:25.643Z,45.43
2023-02-06T21:11:51.980Z,45.29
2023-02-06T21:14:18.355Z,45.41
2023-02-06T21:16:44.743Z,45.47
2023-02-06T21:19:11.462Z,45.42
2023-02-06T21:21:37.784Z,45.35
2023-02-06T21:24:04.310Z,45.00
2023-02-06T21:26:30.645Z,45.00
2023-02-06T21:28:58.259Z,44.87
2023-02-06T21:31:25.231Z,45.12
2023-02-06T21:33:51.666Z,45.11
2023-02-06T21:36:18.008Z,45.48
2023-02-06T21:38:44.347Z,45.46
2023-02-06T21:41:14.084Z,45.22
2023-02-06T21:43:40.437Z,45.04
2023-02-06T21:46:06.828Z,45.05
2023-02-06T21:48:33.253Z,45.20
2023-02-06T21:50:59.621Z,45.08
2023-02-06T21:53:25.995Z,45.11
2023-02-06T21:55:52.309Z,45.20
2023-02-06T21:58:18.638Z,45.03
2023-02-06T22:00:45.500Z,45.01
2023-02-06T22:03:11.915Z,45.13
2023-02-06T22:05:38.474Z,45.48
2023-02-06T22:08:04.996Z,45.38
2023-02-06T22:10:31.374Z,45.45
2023-02-06T22:12:57.728Z,45.31
2023-02-06T22:15:24.080Z,45.30
2023-02-06T22:17:50.395Z,45.12
2023-02-06T22:20:16.710Z,45.25
2023-02-06T22:22:43.047Z,45.33
2023-02-06T22:25:11.557Z,45.23
2023-02-06T22:27:38.012Z,45.24
2023-02-06T22:30:04.967Z,45.32
2023-02-06T22:32:31.316Z,45.23
2023-02-06T22:35:00.521Z,45.28
2023-02-06T22:37:27.129Z,45.11
2023-02-06T22:39:56.293Z,45.23
2023-02-06T22:42:22.847Z,45.13
2023-02-06T22:44:49.196Z,45.13
2023-02-06T22:47:15.532Z,45.32
2023-02-06T22:49:41.854Z,45.10
2023-02-06T22:52:28.130Z,45.02
2023-02-06T22:54:54.475Z,45.12
2023-02-06T22:57:20.839Z,45.28
2023-02-06T22:59:47.195Z,45.04
2023-02-06T23:02:13.544Z,45.13
2023-02-06T23:04:40.636Z,45.19
2023-02-06T23:07:07.200Z,45.12
2023-02-06T23:09:34.177Z,45.19
2023-02-06T23:12:00.954Z,45.16
2023-02-06T23:14:27.758Z,44.93
2023-02-06T23:16:54.176Z,45.00
2023-02-06T23:19:20.512Z,45.15
2023-02-06T23:21:47.170Z,45.22
2023-02-06T23:24:14.375Z,45.25
2023-02-06T23:26:41.108Z,45.13
2023-02-06T23:29:07.437Z,45.24
2023-02-06T23:31:33.815Z,45.35
2023-02-06T23:34:00.648Z,45.22
2023-02-06T23:36:27.155Z,45.05
2023-02-06T23:38:53.536Z,45.24
2023-02-06T23:41:20.652Z,45.16
2023-02-06T23:43:52.578Z,45.07
2023-02-06T23:46:19.979Z,45.00
2023-02-06T23:48:46.840Z,45.01
2023-02-06T23:51:13.198Z,45.12
2023-02-06T23:53:39.534Z,44.97
2023-02-06T23:56:09.888Z,45.10
2023-02-06T23:58:36.252Z,45.14
